Kent, Illinois
Current Conditions -  °F | °C
As of 3:55 PM on Thursday 23 Oct 2014 (Local Time) from KFEP Reporting Station
Overcast Overcast  
Wind Chill: 14°   Ceiling: 3300
Heat Index: 14°   Visibility: 10mi
Dew Point:   Wind: 12mph
Humidity: 61%   Direction: 210°SSW
Pressure: 30.06"   Gusts: 17mph
Location:  42.31°N, 89.9°W
Report Text: KFEP 232055Z AUTO 21010G15KT 10SM OVC033 14/06 A3006 RMK AO2 T01380064
Loading
Personal Weather Stations






























Interactive Weather Map
Tropical Storm Tracking
New forecast layout! Learn more

10-Day Weather Forecast

Advertisements
Track Severe Weather on mobile